sensor_id;sensor_type;location;lat;lon;timestamp;P1;durP1;ratioP1;P2;durP2;ratioP2
11777;SDS011;5946;51.770;8.548;2023-05-14T00:02:00;6.90;;;6.20;;
11777;SDS011;5946;51.770;8.548;2023-05-14T00:04:26;9.53;;;6.27;;
11777;SDS011;5946;51.770;8.548;2023-05-14T00:06:52;7.30;;;6.60;;
11777;SDS011;5946;51.770;8.548;2023-05-14T00:09:18;9.17;;;6.47;;
11777;SDS011;5946;51.770;8.548;2023-05-14T00:11:44;12.37;;;7.30;;
11777;SDS011;5946;51.770;8.548;2023-05-14T00:14:10;6.87;;;6.27;;
11777;SDS011;5946;51.770;8.548;2023-05-14T00:16:36;9.93;;;7.07;;
11777;SDS011;5946;51.770;8.548;2023-05-14T00:19:02;8.27;;;6.53;;
11777;SDS011;5946;51.770;8.548;2023-05-14T00:21:28;8.73;;;6.90;;
11777;SDS011;5946;51.770;8.548;2023-05-14T00:23:54;9.13;;;6.80;;
11777;SDS011;5946;51.770;8.548;2023-05-14T00:26:19;8.23;;;6.60;;
11777;SDS011;5946;51.770;8.548;2023-05-14T00:28:45;8.33;;;6.70;;
11777;SDS011;5946;51.770;8.548;2023-05-14T00:31:13;6.53;;;5.93;;
11777;SDS011;5946;51.770;8.548;2023-05-14T00:33:38;8.50;;;7.10;;
11777;SDS011;5946;51.770;8.548;2023-05-14T00:36:04;11.10;;;6.90;;
11777;SDS011;5946;51.770;8.548;2023-05-14T00:38:30;7.70;;;6.93;;
11777;SDS011;5946;51.770;8.548;2023-05-14T00:40:56;8.33;;;6.57;;
11777;SDS011;5946;51.770;8.548;2023-05-14T00:43:22;9.93;;;7.10;;
11777;SDS011;5946;51.770;8.548;2023-05-14T00:45:51;8.60;;;7.53;;
11777;SDS011;5946;51.770;8.548;2023-05-14T00:48:17;8.43;;;7.43;;
11777;SDS011;5946;51.770;8.548;2023-05-14T00:50:44;9.47;;;7.60;;
11777;SDS011;5946;51.770;8.548;2023-05-14T00:53:10;10.60;;;7.53;;
11777;SDS011;5946;51.770;8.548;2023-05-14T00:55:40;8.13;;;7.30;;
11777;SDS011;5946;51.770;8.548;2023-05-14T00:58:06;8.77;;;7.70;;
11777;SDS011;5946;51.770;8.548;2023-05-14T01:00:34;8.43;;;7.50;;
11777;SDS011;5946;51.770;8.548;2023-05-14T01:03:00;8.27;;;7.30;;
11777;SDS011;5946;51.770;8.548;2023-05-14T01:05:28;8.93;;;7.43;;
11777;SDS011;5946;51.770;8.548;2023-05-14T01:11:08;8.77;;;7.97;;
11777;SDS011;5946;51.770;8.548;2023-05-14T01:13:43;8.80;;;7.90;;
11777;SDS011;5946;51.770;8.548;2023-05-14T01:16:12;8.23;;;7.43;;
11777;SDS011;5946;51.770;8.548;2023-05-14T01:18:39;10.07;;;8.13;;
11777;SDS011;5946;51.770;8.548;2023-05-14T01:21:17;9.03;;;8.20;;
11777;SDS011;5946;51.770;8.548;2023-05-14T01:23:43;12.20;;;9.00;;
11777;SDS011;5946;51.770;8.548;2023-05-14T01:26:09;9.97;;;8.53;;
11777;SDS011;5946;51.770;8.548;2023-05-14T01:28:35;9.73;;;8.73;;
11777;SDS011;5946;51.770;8.548;2023-05-14T01:31:06;9.10;;;8.20;;
11777;SDS011;5946;51.770;8.548;2023-05-14T01:33:32;9.83;;;8.67;;
11777;SDS011;5946;51.770;8.548;2023-05-14T01:36:00;12.27;;;8.90;;
11777;SDS011;5946;51.770;8.548;2023-05-14T01:38:26;9.90;;;8.90;;
11777;SDS011;5946;51.770;8.548;2023-05-14T01:40:57;10.67;;;8.70;;
11777;SDS011;5946;51.770;8.548;2023-05-14T01:43:24;9.40;;;8.50;;
11777;SDS011;5946;51.770;8.548;2023-05-14T01:45:50;9.90;;;8.90;;
11777;SDS011;5946;51.770;8.548;2023-05-14T01:48:16;10.43;;;9.33;;
11777;SDS011;5946;51.770;8.548;2023-05-14T01:50:42;12.63;;;9.67;;
11777;SDS011;5946;51.770;8.548;2023-05-14T01:53:08;11.37;;;10.17;;
11777;SDS011;5946;51.770;8.548;2023-05-14T01:55:34;10.70;;;9.60;;
11777;SDS011;5946;51.770;8.548;2023-05-14T01:58:00;10.57;;;9.47;;
11777;SDS011;5946;51.770;8.548;2023-05-14T02:00:26;13.67;;;9.83;;
11777;SDS011;5946;51.770;8.548;2023-05-14T02:02:52;11.67;;;9.37;;
11777;SDS011;5946;51.770;8.548;2023-05-14T02:05:18;12.43;;;10.10;;
11777;SDS011;5946;51.770;8.548;2023-05-14T02:07:44;10.33;;;9.33;;
11777;SDS011;5946;51.770;8.548;2023-05-14T02:10:10;10.97;;;9.87;;
11777;SDS011;5946;51.770;8.548;2023-05-14T02:12:36;10.80;;;9.63;;
11777;SDS011;5946;51.770;8.548;2023-05-14T02:15:02;13.50;;;10.43;;
11777;SDS011;5946;51.770;8.548;2023-05-14T02:17:28;11.70;;;10.07;;
11777;SDS011;5946;51.770;8.548;2023-05-14T02:19:54;13.33;;;10.60;;
11777;SDS011;5946;51.770;8.548;2023-05-14T02:22:20;11.70;;;10.50;;
11777;SDS011;5946;51.770;8.548;2023-05-14T02:24:46;11.57;;;10.37;;
11777;SDS011;5946;51.770;8.548;2023-05-14T02:27:13;15.33;;;11.17;;
11777;SDS011;5946;51.770;8.548;2023-05-14T02:29:39;12.13;;;10.93;;
11777;SDS011;5946;51.770;8.548;2023-05-14T02:32:05;12.47;;;11.17;;
11777;SDS011;5946;51.770;8.548;2023-05-14T02:34:31;12.33;;;10.97;;
11777;SDS011;5946;51.770;8.548;2023-05-14T02:36:58;13.37;;;11.90;;
11777;SDS011;5946;51.770;8.548;2023-05-14T02:39:24;13.23;;;11.90;;
11777;SDS011;5946;51.770;8.548;2023-05-14T02:41:50;13.27;;;11.90;;
11777;SDS011;5946;51.770;8.548;2023-05-14T02:44:16;15.53;;;12.13;;
11777;SDS011;5946;51.770;8.548;2023-05-14T02:46:42;13.57;;;12.27;;
11777;SDS011;5946;51.770;8.548;2023-05-14T02:49:08;15.27;;;12.23;;
11777;SDS011;5946;51.770;8.548;2023-05-14T02:51:34;14.17;;;10.87;;
11777;SDS011;5946;51.770;8.548;2023-05-14T02:54:00;13.70;;;12.30;;
11777;SDS011;5946;51.770;8.548;2023-05-14T02:56:26;12.47;;;11.23;;
11777;SDS011;5946;51.770;8.548;2023-05-14T02:58:52;12.93;;;11.73;;
11777;SDS011;5946;51.770;8.548;2023-05-14T03:01:18;12.30;;;11.10;;
11777;SDS011;5946;51.770;8.548;2023-05-14T03:03:44;14.57;;;12.47;;
11777;SDS011;5946;51.770;8.548;2023-05-14T03:06:10;13.77;;;11.70;;
11777;SDS011;5946;51.770;8.548;2023-05-14T03:08:36;13.50;;;12.10;;
11777;SDS011;5946;51.770;8.548;2023-05-14T03:11:02;14.23;;;12.20;;
11777;SDS011;5946;51.770;8.548;2023-05-14T03:13:28;13.40;;;11.37;;
11777;SDS011;5946;51.770;8.548;2023-05-14T03:15:53;13.97;;;12.50;;
11777;SDS011;5946;51.770;8.548;2023-05-14T03:18:20;13.07;;;11.77;;
11777;SDS011;5946;51.770;8.548;2023-05-14T03:20:46;16.33;;;11.57;;
11777;SDS011;5946;51.770;8.548;2023-05-14T03:23:12;13.43;;;11.70;;
11777;SDS011;5946;51.770;8.548;2023-05-14T03:25:39;12.50;;;11.20;;
11777;SDS011;5946;51.770;8.548;2023-05-14T03:28:05;13.00;;;11.27;;
11777;SDS011;5946;51.770;8.548;2023-05-14T03:30:31;13.20;;;11.90;;
11777;SDS011;5946;51.770;8.548;2023-05-14T03:32:57;12.93;;;11.50;;
11777;SDS011;5946;51.770;8.548;2023-05-14T03:35:23;13.40;;;12.00;;
11777;SDS011;5946;51.770;8.548;2023-05-14T03:37:49;14.80;;;12.50;;
11777;SDS011;5946;51.770;8.548;2023-05-14T03:40:17;13.13;;;11.33;;
11777;SDS011;5946;51.770;8.548;2023-05-14T03:42:42;14.07;;;12.17;;
11777;SDS011;5946;51.770;8.548;2023-05-14T03:45:08;15.63;;;12.67;;
11777;SDS011;5946;51.770;8.548;2023-05-14T03:47:34;13.47;;;12.17;;
11777;SDS011;5946;51.770;8.548;2023-05-14T03:50:00;14.10;;;12.60;;
11777;SDS011;5946;51.770;8.548;2023-05-14T03:52:26;17.73;;;12.70;;
11777;SDS011;5946;51.770;8.548;2023-05-14T03:54:52;14.10;;;12.03;;
11777;SDS011;5946;51.770;8.548;2023-05-14T03:57:18;14.67;;;12.13;;
11777;SDS011;5946;51.770;8.548;2023-05-14T03:59:44;14.23;;;12.83;;
11777;SDS011;5946;51.770;8.548;2023-05-14T04:02:10;14.60;;;12.67;;
11777;SDS011;5946;51.770;8.548;2023-05-14T04:04:36;14.97;;;13.47;;
11777;SDS011;5946;51.770;8.548;2023-05-14T04:07:02;15.33;;;13.73;;
11777;SDS011;5946;51.770;8.548;2023-05-14T04:09:28;16.53;;;12.53;;
11777;SDS011;5946;51.770;8.548;2023-05-14T04:11:54;15.70;;;13.93;;
11777;SDS011;5946;51.770;8.548;2023-05-14T04:14:20;15.13;;;13.17;;
11777;SDS011;5946;51.770;8.548;2023-05-14T04:16:46;13.33;;;12.10;;
11777;SDS011;5946;51.770;8.548;2023-05-14T04:19:12;13.93;;;12.43;;
11777;SDS011;5946;51.770;8.548;2023-05-14T04:21:38;16.67;;;12.63;;
11777;SDS011;5946;51.770;8.548;2023-05-14T04:24:04;14.53;;;13.03;;
11777;SDS011;5946;51.770;8.548;2023-05-14T04:26:30;13.83;;;12.30;;
11777;SDS011;5946;51.770;8.548;2023-05-14T04:28:56;14.60;;;11.57;;
11777;SDS011;5946;51.770;8.548;2023-05-14T04:31:26;13.50;;;11.13;;
11777;SDS011;5946;51.770;8.548;2023-05-14T04:33:52;14.17;;;11.73;;
11777;SDS011;5946;51.770;8.548;2023-05-14T04:36:18;13.30;;;11.83;;
11777;SDS011;5946;51.770;8.548;2023-05-14T04:38:44;12.00;;;10.80;;
11777;SDS011;5946;51.770;8.548;2023-05-14T04:41:10;12.30;;;11.00;;
11777;SDS011;5946;51.770;8.548;2023-05-14T04:43:36;12.90;;;11.67;;
11777;SDS011;5946;51.770;8.548;2023-05-14T04:46:02;13.93;;;11.60;;
11777;SDS011;5946;51.770;8.548;2023-05-14T04:48:28;12.33;;;10.73;;
11777;SDS011;5946;51.770;8.548;2023-05-14T04:50:54;12.17;;;10.87;;
11777;SDS011;5946;51.770;8.548;2023-05-14T04:53:20;13.47;;;10.93;;
11777;SDS011;5946;51.770;8.548;2023-05-14T04:55:46;13.17;;;11.50;;
11777;SDS011;5946;51.770;8.548;2023-05-14T04:58:12;12.27;;;10.97;;
11777;SDS011;5946;51.770;8.548;2023-05-14T05:00:38;12.20;;;11.00;;
11777;SDS011;5946;51.770;8.548;2023-05-14T05:03:04;11.80;;;10.60;;
11777;SDS011;5946;51.770;8.548;2023-05-14T05:05:30;10.70;;;9.70;;
11777;SDS011;5946;51.770;8.548;2023-05-14T05:07:56;11.40;;;10.20;;
11777;SDS011;5946;51.770;8.548;2023-05-14T05:10:22;12.30;;;9.70;;
11777;SDS011;5946;51.770;8.548;2023-05-14T05:12:48;10.47;;;9.47;;
11777;SDS011;5946;51.770;8.548;2023-05-14T05:15:14;9.80;;;8.90;;
11777;SDS011;5946;51.770;8.548;2023-05-14T05:17:40;9.53;;;8.63;;
11777;SDS011;5946;51.770;8.548;2023-05-14T05:20:07;9.93;;;8.90;;
11777;SDS011;5946;51.770;8.548;2023-05-14T05:22:34;9.57;;;8.67;;
11777;SDS011;5946;51.770;8.548;2023-05-14T05:25:00;8.73;;;7.87;;
11777;SDS011;5946;51.770;8.548;2023-05-14T05:27:30;10.33;;;8.13;;
11777;SDS011;5946;51.770;8.548;2023-05-14T05:29:56;9.13;;;8.30;;
11777;SDS011;5946;51.770;8.548;2023-05-14T05:32:22;9.13;;;7.37;;
11777;SDS011;5946;51.770;8.548;2023-05-14T05:34:48;8.67;;;7.40;;
11777;SDS011;5946;51.770;8.548;2023-05-14T05:37:15;8.20;;;7.40;;
11777;SDS011;5946;51.770;8.548;2023-05-14T05:39:41;7.80;;;7.10;;
11777;SDS011;5946;51.770;8.548;2023-05-14T05:42:07;8.27;;;7.00;;
11777;SDS011;5946;51.770;8.548;2023-05-14T05:44:34;7.90;;;7.20;;
11777;SDS011;5946;51.770;8.548;2023-05-14T05:47:00;8.37;;;7.57;;
11777;SDS011;5946;51.770;8.548;2023-05-14T05:49:26;8.80;;;7.33;;
11777;SDS011;5946;51.770;8.548;2023-05-14T05:51:52;7.47;;;6.80;;
11777;SDS011;5946;51.770;8.548;2023-05-14T05:54:18;11.20;;;6.80;;
11777;SDS011;5946;51.770;8.548;2023-05-14T05:56:44;7.53;;;6.83;;
11777;SDS011;5946;51.770;8.548;2023-05-14T05:59:10;7.40;;;6.70;;
11777;SDS011;5946;51.770;8.548;2023-05-14T06:01:36;8.23;;;6.50;;
11777;SDS011;5946;51.770;8.548;2023-05-14T06:04:02;8.33;;;6.47;;
11777;SDS011;5946;51.770;8.548;2023-05-14T06:06:30;7.40;;;6.70;;
11777;SDS011;5946;51.770;8.548;2023-05-14T06:08:56;8.57;;;6.47;;
11777;SDS011;5946;51.770;8.548;2023-05-14T06:11:22;7.33;;;6.60;;
11777;SDS011;5946;51.770;8.548;2023-05-14T06:13:48;8.90;;;5.97;;
11777;SDS011;5946;51.770;8.548;2023-05-14T06:16:14;6.23;;;5.27;;
11777;SDS011;5946;51.770;8.548;2023-05-14T06:18:40;8.60;;;6.10;;
11777;SDS011;5946;51.770;8.548;2023-05-14T06:21:06;6.30;;;5.40;;
11777;SDS011;5946;51.770;8.548;2023-05-14T06:23:32;7.30;;;5.67;;
11777;SDS011;5946;51.770;8.548;2023-05-14T06:25:58;6.37;;;5.77;;
11777;SDS011;5946;51.770;8.548;2023-05-14T06:28:24;5.90;;;5.40;;
11777;SDS011;5946;51.770;8.548;2023-05-14T06:30:50;5.90;;;5.40;;
11777;SDS011;5946;51.770;8.548;2023-05-14T06:33:18;6.87;;;6.03;;
11777;SDS011;5946;51.770;8.548;2023-05-14T06:35:45;5.83;;;5.33;;
11777;SDS011;5946;51.770;8.548;2023-05-14T06:38:11;12.30;;;5.30;;
11777;SDS011;5946;51.770;8.548;2023-05-14T06:40:37;5.73;;;5.23;;
11777;SDS011;5946;51.770;8.548;2023-05-14T06:43:02;6.00;;;5.40;;
11777;SDS011;5946;51.770;8.548;2023-05-14T06:45:30;6.47;;;5.20;;
11777;SDS011;5946;51.770;8.548;2023-05-14T06:47:56;5.50;;;5.00;;
11777;SDS011;5946;51.770;8.548;2023-05-14T06:50:22;6.30;;;5.70;;
11777;SDS011;5946;51.770;8.548;2023-05-14T06:52:48;5.67;;;5.10;;
11777;SDS011;5946;51.770;8.548;2023-05-14T06:55:14;4.77;;;4.37;;
11777;SDS011;5946;51.770;8.548;2023-05-14T06:57:40;6.27;;;5.13;;
11777;SDS011;5946;51.770;8.548;2023-05-14T07:00:06;4.57;;;4.18;;
11777;SDS011;5946;51.770;8.548;2023-05-14T07:02:32;5.40;;;4.90;;
11777;SDS011;5946;51.770;8.548;2023-05-14T07:04:59;4.47;;;4.07;;
11777;SDS011;5946;51.770;8.548;2023-05-14T07:07:25;4.33;;;3.93;;
11777;SDS011;5946;51.770;8.548;2023-05-14T07:09:51;5.00;;;4.30;;
11777;SDS011;5946;51.770;8.548;2023-05-14T07:12:17;4.00;;;3.70;;
11777;SDS011;5946;51.770;8.548;2023-05-14T07:14:43;4.40;;;4.00;;
11777;SDS011;5946;51.770;8.548;2023-05-14T07:17:10;5.47;;;4.20;;
11777;SDS011;5946;51.770;8.548;2023-05-14T07:19:36;6.13;;;3.83;;
11777;SDS011;5946;51.770;8.548;2023-05-14T07:22:02;4.67;;;4.00;;
11777;SDS011;5946;51.770;8.548;2023-05-14T07:24:28;4.00;;;3.70;;
11777;SDS011;5946;51.770;8.548;2023-05-14T07:26:54;3.93;;;3.60;;
11777;SDS011;5946;51.770;8.548;2023-05-14T07:29:21;4.93;;;3.90;;
11777;SDS011;5946;51.770;8.548;2023-05-14T07:31:48;4.40;;;4.00;;
11777;SDS011;5946;51.770;8.548;2023-05-14T07:34:15;6.60;;;4.13;;
11777;SDS011;5946;51.770;8.548;2023-05-14T07:36:41;5.20;;;4.30;;
11777;SDS011;5946;51.770;8.548;2023-05-14T07:39:07;4.40;;;4.00;;
11777;SDS011;5946;51.770;8.548;2023-05-14T07:41:33;4.20;;;3.90;;
11777;SDS011;5946;51.770;8.548;2023-05-14T07:43:59;5.03;;;4.10;;
11777;SDS011;5946;51.770;8.548;2023-05-14T07:46:25;4.80;;;4.40;;
11777;SDS011;5946;51.770;8.548;2023-05-14T07:48:51;4.17;;;3.87;;
11777;SDS011;5946;51.770;8.548;2023-05-14T07:51:16;6.43;;;4.10;;
11777;SDS011;5946;51.770;8.548;2023-05-14T07:53:42;5.57;;;3.80;;
11777;SDS011;5946;51.770;8.548;2023-05-14T07:56:09;4.10;;;3.80;;
11777;SDS011;5946;51.770;8.548;2023-05-14T07:58:35;4.33;;;3.97;;
11777;SDS011;5946;51.770;8.548;2023-05-14T08:01:00;4.10;;;3.70;;
11777;SDS011;5946;51.770;8.548;2023-05-14T08:03:30;4.10;;;3.70;;
11777;SDS011;5946;51.770;8.548;2023-05-14T08:05:56;4.97;;;3.97;;
11777;SDS011;5946;51.770;8.548;2023-05-14T08:08:22;4.50;;;4.10;;
11777;SDS011;5946;51.770;8.548;2023-05-14T08:10:49;4.60;;;4.20;;
11777;SDS011;5946;51.770;8.548;2023-05-14T08:13:15;4.03;;;3.73;;
11777;SDS011;5946;51.770;8.548;2023-05-14T08:15:41;4.47;;;4.03;;
11777;SDS011;5946;51.770;8.548;2023-05-14T08:18:07;4.70;;;4.30;;
11777;SDS011;5946;51.770;8.548;2023-05-14T08:20:33;4.00;;;3.50;;
11777;SDS011;5946;51.770;8.548;2023-05-14T08:22:59;6.17;;;3.93;;
11777;SDS011;5946;51.770;8.548;2023-05-14T08:25:25;4.40;;;4.00;;
11777;SDS011;5946;51.770;8.548;2023-05-14T08:27:51;4.47;;;3.67;;
11777;SDS011;5946;51.770;8.548;2023-05-14T08:30:18;5.83;;;4.00;;
11777;SDS011;5946;51.770;8.548;2023-05-14T08:32:44;7.67;;;3.97;;
11777;SDS011;5946;51.770;8.548;2023-05-14T08:35:10;3.80;;;3.43;;
11777;SDS011;5946;51.770;8.548;2023-05-14T08:37:36;3.27;;;2.87;;
11777;SDS011;5946;51.770;8.548;2023-05-14T08:40:02;3.40;;;3.10;;
11777;SDS011;5946;51.770;8.548;2023-05-14T08:42:28;3.03;;;2.73;;
11777;SDS011;5946;51.770;8.548;2023-05-14T08:45:01;3.77;;;3.10;;
11777;SDS011;5946;51.770;8.548;2023-05-14T08:47:27;3.30;;;2.87;;
11777;SDS011;5946;51.770;8.548;2023-05-14T08:50:05;3.87;;;3.30;;
11777;SDS011;5946;51.770;8.548;2023-05-14T08:52:32;3.90;;;3.10;;
11777;SDS011;5946;51.770;8.548;2023-05-14T08:55:00;3.00;;;2.80;;
11777;SDS011;5946;51.770;8.548;2023-05-14T08:57:27;3.10;;;2.90;;
11777;SDS011;5946;51.770;8.548;2023-05-14T08:59:55;4.00;;;3.20;;
11777;SDS011;5946;51.770;8.548;2023-05-14T09:02:27;3.03;;;2.83;;
11777;SDS011;5946;51.770;8.548;2023-05-14T09:04:54;3.40;;;3.10;;
11777;SDS011;5946;51.770;8.548;2023-05-14T09:07:21;5.57;;;3.00;;
11777;SDS011;5946;51.770;8.548;2023-05-14T09:09:46;3.47;;;3.17;;
11777;SDS011;5946;51.770;8.548;2023-05-14T09:12:12;5.63;;;2.83;;
11777;SDS011;5946;51.770;8.548;2023-05-14T09:14:38;4.30;;;3.07;;
11777;SDS011;5946;51.770;8.548;2023-05-14T09:17:05;3.60;;;3.00;;
11777;SDS011;5946;51.770;8.548;2023-05-14T09:19:31;4.47;;;3.20;;
11777;SDS011;5946;51.770;8.548;2023-05-14T09:21:57;3.43;;;3.17;;
11777;SDS011;5946;51.770;8.548;2023-05-14T09:24:26;3.42;;;3.13;;
11777;SDS011;5946;51.770;8.548;2023-05-14T09:26:54;4.30;;;3.40;;
11777;SDS011;5946;51.770;8.548;2023-05-14T09:29:20;4.73;;;3.33;;
11777;SDS011;5946;51.770;8.548;2023-05-14T09:31:46;5.10;;;3.50;;
11777;SDS011;5946;51.770;8.548;2023-05-14T09:34:27;3.20;;;2.92;;
11777;SDS011;5946;51.770;8.548;2023-05-14T09:37:01;3.35;;;3.05;;
11777;SDS011;5946;51.770;8.548;2023-05-14T09:39:27;3.55;;;2.88;;
11777;SDS011;5946;51.770;8.548;2023-05-14T09:41:54;3.00;;;2.80;;
11777;SDS011;5946;51.770;8.548;2023-05-14T09:44:20;3.53;;;3.22;;
11777;SDS011;5946;51.770;8.548;2023-05-14T09:46:46;4.60;;;3.33;;
11777;SDS011;5946;51.770;8.548;2023-05-14T09:49:13;3.10;;;2.60;;
11777;SDS011;5946;51.770;8.548;2023-05-14T09:51:39;3.17;;;2.97;;
11777;SDS011;5946;51.770;8.548;2023-05-14T09:54:05;3.15;;;2.90;;
11777;SDS011;5946;51.770;8.548;2023-05-14T09:56:31;3.05;;;2.85;;
11777;SDS011;5946;51.770;8.548;2023-05-14T09:58:57;2.78;;;2.58;;
11777;SDS011;5946;51.770;8.548;2023-05-14T10:01:23;3.33;;;2.72;;
11777;SDS011;5946;51.770;8.548;2023-05-14T10:03:50;2.80;;;2.47;;
11777;SDS011;5946;51.770;8.548;2023-05-14T10:06:18;2.60;;;2.40;;
11777;SDS011;5946;51.770;8.548;2023-05-14T10:08:47;2.50;;;2.30;;
11777;SDS011;5946;51.770;8.548;2023-05-14T10:11:14;2.60;;;2.40;;
11777;SDS011;5946;51.770;8.548;2023-05-14T10:13:48;3.00;;;2.30;;
11777;SDS011;5946;51.770;8.548;2023-05-14T10:16:21;2.85;;;2.38;;
11777;SDS011;5946;51.770;8.548;2023-05-14T10:18:49;2.60;;;2.40;;
11777;SDS011;5946;51.770;8.548;2023-05-14T10:21:19;2.60;;;2.40;;
11777;SDS011;5946;51.770;8.548;2023-05-14T10:23:48;2.30;;;2.10;;
11777;SDS011;5946;51.770;8.548;2023-05-14T10:26:15;2.20;;;2.10;;
11777;SDS011;5946;51.770;8.548;2023-05-14T10:28:41;2.47;;;2.28;;
11777;SDS011;5946;51.770;8.548;2023-05-14T10:31:10;2.60;;;2.40;;
11777;SDS011;5946;51.770;8.548;2023-05-14T10:33:46;2.50;;;2.30;;
11777;SDS011;5946;51.770;8.548;2023-05-14T10:36:14;2.72;;;2.35;;
11777;SDS011;5946;51.770;8.548;2023-05-14T10:38:40;1.73;;;1.63;;
11777;SDS011;5946;51.770;8.548;2023-05-14T10:41:09;1.80;;;1.70;;
11777;SDS011;5946;51.770;8.548;2023-05-14T10:43:36;2.15;;;1.95;;
11777;SDS011;5946;51.770;8.548;2023-05-14T10:46:02;2.30;;;2.05;;
11777;SDS011;5946;51.770;8.548;2023-05-14T10:48:28;2.30;;;2.10;;
11777;SDS011;5946;51.770;8.548;2023-05-14T10:50:55;2.15;;;1.80;;
11777;SDS011;5946;51.770;8.548;2023-05-14T10:53:30;2.20;;;2.10;;
11777;SDS011;5946;51.770;8.548;2023-05-14T10:55:56;3.92;;;2.10;;
11777;SDS011;5946;51.770;8.548;2023-05-14T10:58:22;2.38;;;2.10;;
11777;SDS011;5946;51.770;8.548;2023-05-14T11:00:48;2.10;;;1.95;;
11777;SDS011;5946;51.770;8.548;2023-05-14T11:03:19;2.15;;;2.05;;
11777;SDS011;5946;51.770;8.548;2023-05-14T11:05:45;2.00;;;1.90;;
11777;SDS011;5946;51.770;8.548;2023-05-14T11:08:12;1.90;;;1.80;;
11777;SDS011;5946;51.770;8.548;2023-05-14T11:10:38;1.70;;;1.60;;
11777;SDS011;5946;51.770;8.548;2023-05-14T11:13:04;2.00;;;1.90;;
11777;SDS011;5946;51.770;8.548;2023-05-14T11:15:30;2.38;;;2.05;;
11777;SDS011;5946;51.770;8.548;2023-05-14T11:17:56;2.10;;;2.00;;
11777;SDS011;5946;51.770;8.548;2023-05-14T11:20:22;2.13;;;2.00;;
11777;SDS011;5946;51.770;8.548;2023-05-14T11:22:48;2.60;;;1.85;;
11777;SDS011;5946;51.770;8.548;2023-05-14T11:25:17;1.90;;;1.80;;
11777;SDS011;5946;51.770;8.548;2023-05-14T11:27:45;4.40;;;2.33;;
11777;SDS011;5946;51.770;8.548;2023-05-14T11:32:38;2.00;;;1.90;;
11777;SDS011;5946;51.770;8.548;2023-05-14T11:35:04;2.03;;;1.90;;
11777;SDS011;5946;51.770;8.548;2023-05-14T11:37:30;2.88;;;2.10;;
11777;SDS011;5946;51.770;8.548;2023-05-14T11:39:58;1.88;;;1.77;;
11777;SDS011;5946;51.770;8.548;2023-05-14T11:42:24;1.85;;;1.75;;
11777;SDS011;5946;51.770;8.548;2023-05-14T11:44:50;2.70;;;1.70;;
11777;SDS011;5946;51.770;8.548;2023-05-14T11:47:18;1.80;;;1.70;;
11777;SDS011;5946;51.770;8.548;2023-05-14T11:49:45;2.85;;;1.75;;
11777;SDS011;5946;51.770;8.548;2023-05-14T11:52:11;1.70;;;1.60;;
11777;SDS011;5946;51.770;8.548;2023-05-14T11:54:39;2.20;;;2.00;;
11777;SDS011;5946;51.770;8.548;2023-05-14T11:57:15;1.80;;;1.70;;
11777;SDS011;5946;51.770;8.548;2023-05-14T11:59:41;1.85;;;1.70;;
11777;SDS011;5946;51.770;8.548;2023-05-14T12:02:09;1.83;;;1.73;;
11777;SDS011;5946;51.770;8.548;2023-05-14T12:04:35;3.42;;;1.90;;
11777;SDS011;5946;51.770;8.548;2023-05-14T12:07:06;2.10;;;1.90;;
11777;SDS011;5946;51.770;8.548;2023-05-14T12:09:34;3.90;;;2.00;;
11777;SDS011;5946;51.770;8.548;2023-05-14T12:12:06;2.00;;;1.90;;
11777;SDS011;5946;51.770;8.548;2023-05-14T12:14:35;2.00;;;1.90;;
11777;SDS011;5946;51.770;8.548;2023-05-14T12:17:01;1.90;;;1.80;;
11777;SDS011;5946;51.770;8.548;2023-05-14T12:19:27;2.30;;;2.00;;
11777;SDS011;5946;51.770;8.548;2023-05-14T12:21:54;1.92;;;1.83;;
11777;SDS011;5946;51.770;8.548;2023-05-14T12:24:20;2.30;;;2.10;;
11777;SDS011;5946;51.770;8.548;2023-05-14T12:26:47;2.70;;;2.17;;
11777;SDS011;5946;51.770;8.548;2023-05-14T12:29:13;2.00;;;1.90;;
11777;SDS011;5946;51.770;8.548;2023-05-14T12:31:49;2.97;;;1.85;;
11777;SDS011;5946;51.770;8.548;2023-05-14T12:34:15;2.67;;;2.00;;
11777;SDS011;5946;51.770;8.548;2023-05-14T12:36:41;2.65;;;1.83;;
11777;SDS011;5946;51.770;8.548;2023-05-14T12:39:08;1.95;;;1.85;;
11777;SDS011;5946;51.770;8.548;2023-05-14T12:41:34;4.10;;;2.08;;
11777;SDS011;5946;51.770;8.548;2023-05-14T12:44:01;2.30;;;2.10;;
11777;SDS011;5946;51.770;8.548;2023-05-14T12:46:27;2.10;;;2.00;;
11777;SDS011;5946;51.770;8.548;2023-05-14T12:48:53;4.50;;;2.85;;
11777;SDS011;5946;51.770;8.548;2023-05-14T12:51:19;3.42;;;3.00;;
11777;SDS011;5946;51.770;8.548;2023-05-14T12:53:45;3.05;;;2.75;;
11777;SDS011;5946;51.770;8.548;2023-05-14T12:56:12;2.63;;;2.42;;
11777;SDS011;5946;51.770;8.548;2023-05-14T12:58:38;3.10;;;2.85;;
11777;SDS011;5946;51.770;8.548;2023-05-14T13:01:04;4.13;;;3.00;;
11777;SDS011;5946;51.770;8.548;2023-05-14T13:03:30;4.00;;;3.70;;
11777;SDS011;5946;51.770;8.548;2023-05-14T13:05:56;4.18;;;3.50;;
11777;SDS011;5946;51.770;8.548;2023-05-14T13:08:22;4.57;;;3.47;;
11777;SDS011;5946;51.770;8.548;2023-05-14T13:10:54;4.10;;;3.33;;
11777;SDS011;5946;51.770;8.548;2023-05-14T13:13:20;3.20;;;3.00;;
11777;SDS011;5946;51.770;8.548;2023-05-14T13:15:46;3.43;;;3.13;;
11777;SDS011;5946;51.770;8.548;2023-05-14T13:18:13;3.07;;;2.77;;
11777;SDS011;5946;51.770;8.548;2023-05-14T13:20:39;5.25;;;2.80;;
11777;SDS011;5946;51.770;8.548;2023-05-14T13:23:05;3.72;;;2.70;;
11777;SDS011;5946;51.770;8.548;2023-05-14T13:25:31;3.13;;;2.50;;
11777;SDS011;5946;51.770;8.548;2023-05-14T13:27:57;2.70;;;2.50;;
11777;SDS011;5946;51.770;8.548;2023-05-14T13:30:23;2.33;;;2.20;;
11777;SDS011;5946;51.770;8.548;2023-05-14T13:32:49;3.58;;;2.45;;
11777;SDS011;5946;51.770;8.548;2023-05-14T13:35:15;2.10;;;1.90;;
11777;SDS011;5946;51.770;8.548;2023-05-14T13:37:41;2.25;;;2.10;;
11777;SDS011;5946;51.770;8.548;2023-05-14T13:40:08;3.15;;;2.00;;
11777;SDS011;5946;51.770;8.548;2023-05-14T13:42:34;2.47;;;2.22;;
11777;SDS011;5946;51.770;8.548;2023-05-14T13:45:00;2.45;;;2.25;;
11777;SDS011;5946;51.770;8.548;2023-05-14T13:47:26;2.38;;;1.92;;
11777;SDS011;5946;51.770;8.548;2023-05-14T13:49:53;1.95;;;1.80;;
11777;SDS011;5946;51.770;8.548;2023-05-14T13:52:19;3.05;;;2.03;;
11777;SDS011;5946;51.770;8.548;2023-05-14T13:54:45;2.30;;;1.92;;
11777;SDS011;5946;51.770;8.548;2023-05-14T13:57:11;3.03;;;2.20;;
11777;SDS011;5946;51.770;8.548;2023-05-14T13:59:37;1.92;;;1.80;;
11777;SDS011;5946;51.770;8.548;2023-05-14T14:02:03;2.78;;;2.20;;
11777;SDS011;5946;51.770;8.548;2023-05-14T14:04:30;3.25;;;2.95;;
11777;SDS011;5946;51.770;8.548;2023-05-14T14:06:56;2.78;;;1.92;;
11777;SDS011;5946;51.770;8.548;2023-05-14T14:09:22;2.85;;;1.98;;
11777;SDS011;5946;51.770;8.548;2023-05-14T14:11:48;3.92;;;2.13;;
11777;SDS011;5946;51.770;8.548;2023-05-14T14:14:14;2.10;;;2.00;;
11777;SDS011;5946;51.770;8.548;2023-05-14T14:16:40;2.13;;;2.00;;
11777;SDS011;5946;51.770;8.548;2023-05-14T14:19:06;1.65;;;1.55;;
11777;SDS011;5946;51.770;8.548;2023-05-14T14:21:32;1.95;;;1.85;;
11777;SDS011;5946;51.770;8.548;2023-05-14T14:23:59;1.80;;;1.70;;
11777;SDS011;5946;51.770;8.548;2023-05-14T14:26:25;1.50;;;1.40;;
11777;SDS011;5946;51.770;8.548;2023-05-14T14:28:52;2.00;;;1.60;;
11777;SDS011;5946;51.770;8.548;2023-05-14T14:31:18;1.73;;;1.63;;
11777;SDS011;5946;51.770;8.548;2023-05-14T14:33:44;2.33;;;2.13;;
11777;SDS011;5946;51.770;8.548;2023-05-14T14:36:10;3.83;;;1.80;;
11777;SDS011;5946;51.770;8.548;2023-05-14T14:38:36;2.38;;;2.10;;
11777;SDS011;5946;51.770;8.548;2023-05-14T14:41:03;1.98;;;1.88;;
11777;SDS011;5946;51.770;8.548;2023-05-14T14:43:31;3.17;;;2.00;;
11777;SDS011;5946;51.770;8.548;2023-05-14T14:45:57;2.35;;;1.80;;
11777;SDS011;5946;51.770;8.548;2023-05-14T14:50:49;4.53;;;2.00;;
11777;SDS011;5946;51.770;8.548;2023-05-14T14:53:15;2.63;;;2.30;;
11777;SDS011;5946;51.770;8.548;2023-05-14T14:55:41;3.10;;;2.03;;
11777;SDS011;5946;51.770;8.548;2023-05-14T14:58:07;4.97;;;2.35;;
11777;SDS011;5946;51.770;8.548;2023-05-14T15:00:33;3.28;;;2.70;;